Home   Weather   Germany   Osnabrück   Past weeks
Flag for Germany

Past Weather in Osnabrück, Lower Saxony, Germany — Yesterday and Last 2 Weeks

Currently: 70 °F. Scattered clouds. (Weather station: Muenster / Osnabrueck, Germany). See more current weather

Past Weather in Osnabrück — Graph

°F

Osnabrück Temperature Yesterday

Maximum temperature yesterday: 68 °F (at 2:50 pm)
Minimum temperature yesterday: 50 °F (at 4:20 am)
Average temperature yesterday: 59 °F

High & Low Weather Summary for the Past Weeks

 TemperatureHumidityPressure
High82 °F (Jul 24, 4:20 pm)100% (Jul 21, 3:50 am)30.24 "Hg (Jul 21, 3:50 am)
Low50 °F (Jul 23, 5:20 am)43% (Aug 2, 3:20 pm)29.65 "Hg (Jul 30, 7:50 pm)
Average65 °F75%29.90 "Hg
* Reported Jul 20 2:20 pm — Aug 4 2:20 pm, Osnabrück. Weather by CustomWeather, © 2021

Note: Actual official high and low records may vary slightly from our data, if they occured in-between our weather recording intervals... More about our weather records

Osnabrück Weather History for the Previous 24 Hours

Scroll right to see more
 ConditionsComfort  
Time TempWeatherWind HumidityBarometerVisibility
2:20 pm
Wed, Aug 4
70 °FPassing clouds.8 mph57%29.92 "HgN/A
1:50 pm68 °FScattered clouds.7 mph64%29.92 "HgN/A
1:20 pm68 °FScattered clouds.5 mph64%29.92 "HgN/A
12:50 pm70 °FScattered clouds.6 mph60%29.95 "HgN/A
12:20 pm68 °FScattered clouds.6 mph60%29.95 "HgN/A
11:50 am66 °FPartly sunny.3 mph73%29.95 "HgN/A
11:20 am68 °FScattered clouds.3 mph64%29.95 "HgN/A
10:50 am66 °FPassing clouds.6 mph68%29.95 "HgN/A
10:20 am63 °FPassing clouds.5 mph77%29.95 "HgN/A
9:50 am63 °FPassing clouds.5 mph77%29.95 "HgN/A
9:20 am63 °FPassing clouds.3 mph77%29.95 "HgN/A
8:50 am63 °FPassing clouds.5 mph77%29.95 "HgN/A
8:20 am63 °FPassing clouds.5 mph77%29.95 "HgN/A
7:50 am61 °FPassing clouds.3 mph83%29.95 "HgN/A
7:20 am59 °FSunny.2 mph88%29.92 "Hg10 mi
6:50 am59 °FSunny.3 mph82%29.92 "Hg10 mi
6:20 am57 °FPassing clouds.3 mph88%29.92 "HgN/A
5:50 am59 °FClear.5 mph82%29.92 "Hg10 mi
5:20 am59 °FClear.2 mph82%29.92 "Hg10 mi
4:50 am59 °FPassing clouds.3 mph82%29.92 "HgN/A
4:20 am59 °FClear.2 mph82%29.92 "Hg10 mi
3:20 am59 °FPassing clouds.1 mph82%29.92 "HgN/A
2:50 am57 °FClear.1 mph88%29.92 "Hg10 mi
1:20 am59 °FClear.1 mph82%29.92 "Hg10 mi
12:50 am59 °FClear.1 mph88%29.92 "Hg10 mi
12:20 am59 °FClear.2 mph88%29.92 "Hg10 mi
11:50 pm
Tue, Aug 3
59 °FClear.2 mph88%29.92 "Hg10 mi
11:20 pm59 °FClear.1 mph88%29.92 "Hg10 mi
10:50 pm61 °FClear.1 mph77%29.92 "Hg10 mi
10:20 pm63 °FPassing clouds.5 mph73%29.92 "HgN/A
9:50 pm61 °FPassing clouds.2 mph83%29.92 "HgN/A
9:20 pm63 °FPassing clouds.2 mph77%29.92 "HgN/A
8:50 pm63 °FPassing clouds.2 mph73%29.89 "HgN/A
8:20 pm63 °FPassing clouds.2 mph73%29.89 "HgN/A
7:50 pm64 °FPassing clouds.1 mph68%29.89 "HgN/A
7:20 pm64 °FPassing clouds.2 mph68%29.89 "HgN/A
6:50 pm66 °FPassing clouds.2 mph60%29.89 "HgN/A
6:20 pm68 °FPassing clouds.2 mph53%29.89 "HgN/A
5:50 pm68 °FPassing clouds.2 mph49%29.89 "HgN/A
5:20 pm68 °FPassing clouds.2 mph53%29.89 "HgN/A
4:50 pm68 °FPassing clouds.3 mph49%29.89 "HgN/A
4:20 pm68 °FPassing clouds.3 mph53%29.89 "HgN/A
3:50 pm66 °FPassing clouds.3 mph56%29.92 "HgN/A
3:20 pm66 °FPassing clouds.2 mph56%29.92 "HgN/A
Weather by CustomWeather, © 2021

See weather overview